Consulta les dades en temps real de l'estació meteorològica de Mataró
| Hora UTC | 18:35 |
|---|---|
| Temperatura | 14.7 ºC |
| Sòl 15 cm | 12.7 ºC |
| Humitat | 79.0 % |
| Pressió | 1019.3 hPa |
| Pluja | 0.0 mm |
| Velocitat vent | 2.8 km/h |
| Direcció vent | S |
| Radiació solar | 2.8 W/m² |
| Temperatura (ºC) | Humitat (%) | Pressió (hPa) | Velocitat vent (km/h) | Precipitació (mm) | Radiació solar (W/m²) | ||||||||||||||
|---|---|---|---|---|---|---|---|---|---|---|---|---|---|---|---|---|---|---|---|
| Hora UTC | Aire | Sòl 15 cm | Humitat | Pressió | Vel. | Dir. | Vel. Max | Dir. | Intent. màx 5 min. | Rad. Sol. | |||||||||
| 00:05 | 12.6 | 11.2 | 67.1 | 1018.3 | 15.2 | NNW | 15.2 | NNW | 0.0 | 0.1 | |||||||||
| 00:10 | 12.5 | 11.3 | 67.3 | 1018.3 | 13.3 | NNW | 18.0 | NNW | 0.0 | 0.1 | |||||||||
| 00:15 | 12.5 | 11.3 | 66.2 | 1018.3 | 13.4 | NNW | 18.4 | NW | 0.0 | 0.1 | |||||||||
| 00:20 | 12.5 | 11.2 | 64.0 | 1018.2 | 10.4 | NNW | 15.9 | NNW | 0.0 | 0.1 | |||||||||
| 00:25 | 12.5 | 11.1 | 60.8 | 1018.2 | 9.9 | NNW | 13.4 | NNW | 0.0 | 0.1 | |||||||||
| 00:30 | 12.4 | 11.0 | 58.3 | 1018.2 | 9.8 | NNW | 15.5 | NNW | 0.0 | 0.1 | |||||||||
| 00:35 | 12.4 | 10.9 | 57.0 | 1018.2 | 9.8 | NNW | 14.8 | NNW | 0.0 | 0.1 | |||||||||
| 00:40 | 12.5 | 10.8 | 54.9 | 1018.2 | 9.2 | NNW | 13.1 | NNW | 0.0 | 0.1 | |||||||||
| 00:45 | 12.5 | 10.8 | 54.3 | 1018.2 | 9.0 | NNW | 12.4 | NW | 0.0 | 0.1 | |||||||||
| 00:50 | 12.7 | 10.7 | 52.8 | 1018.1 | 12.7 | NNW | 17.3 | NNW | 0.0 | 0.1 | |||||||||
| 00:55 | 12.8 | 10.9 | 51.9 | 1018.0 | 11.6 | NNW | 16.2 | NNW | 0.0 | 0.1 | |||||||||
| 01:00 | 12.7 | 11.0 | 53.2 | 1018.0 | 8.4 | NW | 13.4 | NNW | 0.0 | 0.1 | |||||||||
| 01:05 | 12.4 | 10.8 | 55.0 | 1018.1 | 7.6 | NW | 12.7 | NNW | 0.0 | 0.1 | |||||||||
| 01:10 | 12.4 | 10.5 | 53.8 | 1018.1 | 10.5 | NNW | 14.5 | NNW | 0.0 | 0.1 | |||||||||
| 01:15 | 12.6 | 10.6 | 53.0 | 1018.1 | 12.7 | NNW | 17.3 | NNW | 0.0 | 0.1 | |||||||||
| 01:20 | 12.7 | 10.8 | 52.2 | 1018.1 | 12.5 | NNW | 16.6 | NW | 0.0 | 0.1 | |||||||||
| 01:25 | 12.7 | 10.9 | 52.6 | 1018.0 | 11.0 | NW | 16.2 | NNW | 0.0 | 0.1 | |||||||||
| 01:30 | 12.5 | 10.9 | 54.9 | 1018.0 | 13.1 | NNW | 18.0 | NNW | 0.0 | 0.1 | |||||||||
| 01:35 | 12.5 | 10.9 | 55.2 | 1017.9 | 13.5 | NNW | 18.4 | NNW | 0.0 | 0.1 | |||||||||
| 01:40 | 12.5 | 11.0 | 53.4 | 1017.9 | 13.9 | NNW | 19.1 | NNW | 0.0 | 0.1 | |||||||||
| 01:45 | 12.6 | 11.1 | 52.2 | 1017.9 | 14.6 | NNW | 18.7 | N | 0.0 | 0.1 | |||||||||
| 01:50 | 12.7 | 11.2 | 51.0 | 1017.9 | 14.6 | NNW | 21.9 | NNW | 0.0 | 0.1 | |||||||||
| 01:55 | 12.9 | 11.3 | 49.3 | 1017.9 | 13.7 | NNW | 18.7 | NNW | 0.0 | 0.1 | |||||||||
| 02:00 | 13.0 | 11.5 | 48.2 | 1017.8 | 14.1 | NNW | 20.1 | NNW | 0.0 | 0.1 | |||||||||
| 02:05 | 13.1 | 11.6 | 47.5 | 1017.8 | 14.4 | NNW | 21.2 | NNW | 0.0 | 0.1 | |||||||||
| 02:10 | 13.2 | 11.7 | 46.8 | 1017.8 | 15.8 | NNW | 20.1 | NNW | 0.0 | 0.1 | |||||||||
| 02:15 | 13.3 | 11.8 | 46.2 | 1017.8 | 14.8 | NNW | 20.8 | NW | 0.0 | 0.1 | |||||||||
| 02:20 | 13.3 | 11.9 | 45.7 | 1017.8 | 15.9 | NNW | 21.9 | NNW | 0.0 | 0.1 | |||||||||
| 02:25 | 13.4 | 12.0 | 45.0 | 1017.8 | 13.9 | NNW | 19.1 | NNW | 0.0 | 0.1 | |||||||||
| 02:30 | 13.4 | 12.0 | 44.7 | 1017.8 | 13.3 | NNW | 17.3 | NW | 0.0 | 0.1 | |||||||||
| 02:35 | 13.4 | 12.0 | 44.4 | 1017.8 | 13.4 | NNW | 18.4 | NNW | 0.0 | 0.1 | |||||||||
| 02:40 | 13.4 | 12.0 | 44.4 | 1017.8 | 13.0 | NNW | 17.6 | NNW | 0.0 | 0.1 | |||||||||
| 02:45 | 13.3 | 11.9 | 45.2 | 1017.8 | 12.8 | NNW | 16.9 | NNW | 0.0 | 0.1 | |||||||||
| 02:50 | 13.2 | 11.8 | 46.1 | 1017.8 | 14.2 | NNW | 18.0 | NNW | 0.0 | 0.1 | |||||||||
| 02:55 | 13.1 | 11.7 | 46.1 | 1017.8 | 12.7 | NNW | 18.0 | NNW | 0.0 | 0.1 | |||||||||
| 03:00 | 13.1 | 11.6 | 45.1 | 1017.7 | 14.9 | NNW | 20.5 | NW | 0.0 | 0.1 | |||||||||
| 03:05 | 13.2 | 11.7 | 44.0 | 1017.7 | 15.4 | NNW | 20.1 | NNW | 0.0 | 0.1 | |||||||||
| 03:10 | 13.5 | 11.8 | 43.4 | 1017.7 | 12.3 | NNW | 19.1 | NNW | 0.0 | 0.1 | |||||||||
| 03:15 | 13.5 | 11.9 | 43.9 | 1017.7 | 11.2 | NNW | 15.2 | NNW | 0.0 | 0.1 | |||||||||
| 03:20 | 13.5 | 11.9 | 43.9 | 1017.7 | 13.7 | NNW | 19.1 | NNW | 0.0 | 0.1 | |||||||||
| 03:25 | 13.5 | 11.9 | 43.4 | 1017.7 | 12.8 | NNW | 18.4 | NNW | 0.0 | 0.1 | |||||||||
| 03:30 | 13.5 | 12.0 | 43.4 | 1017.7 | 12.9 | NNW | 17.3 | NNW | 0.0 | 0.1 | |||||||||
| 03:35 | 13.5 | 12.0 | 43.1 | 1017.7 | 10.8 | NNW | 18.0 | NNW | 0.0 | 0.1 | |||||||||
| 03:40 | 13.4 | 11.9 | 43.6 | 1017.7 | 8.9 | NNW | 14.8 | N | 0.0 | 0.1 | |||||||||
| 03:45 | 13.4 | 11.7 | 43.6 | 1017.8 | 9.8 | NNW | 16.2 | NW | 0.0 | 0.1 | |||||||||
| 03:50 | 13.2 | 11.5 | 45.1 | 1017.8 | 4.7 | NW | 10.2 | NNW | 0.0 | 0.1 | |||||||||
| 03:55 | 12.8 | 10.9 | 46.9 | 1017.9 | 5.9 | WNW | 10.2 | NW | 0.0 | 0.1 | |||||||||
| 04:00 | 12.4 | 10.2 | 48.7 | 1017.8 | 5.3 | NW | 7.8 | NW | 0.0 | 0.1 | |||||||||
| 04:05 | 11.7 | 9.4 | 51.3 | 1017.8 | 4.8 | NW | 7.1 | NW | 0.0 | 0.1 | |||||||||
| 04:10 | 11.5 | 8.6 | 49.6 | 1017.8 | 6.7 | NW | 9.5 | NNW | 0.0 | 0.1 | |||||||||
| 04:15 | 11.6 | 8.1 | 49.3 | 1017.9 | 6.0 | NNW | 10.6 | NNW | 0.0 | 0.1 | |||||||||
| 04:20 | 11.2 | 7.7 | 51.5 | 1017.9 | 4.2 | NW | 8.8 | NW | 0.0 | 0.1 | |||||||||
| 04:25 | 11.0 | 7.4 | 50.8 | 1017.8 | 6.0 | NNW | 9.9 | NNW | 0.0 | 0.1 | |||||||||
| 04:30 | 10.8 | 7.1 | 52.5 | 1017.8 | 4.4 | NNW | 6.4 | NNW | 0.0 | 0.1 | |||||||||
| 04:35 | 10.7 | 6.7 | 50.0 | 1017.7 | 4.7 | NNW | 7.8 | N | 0.0 | 0.1 | |||||||||
| 04:40 | 11.1 | 6.5 | 46.9 | 1017.8 | 6.8 | NNW | 9.5 | NW | 0.0 | 0.1 | |||||||||
| 04:45 | 11.7 | 6.7 | 43.3 | 1017.8 | 6.7 | N | 10.2 | N | 0.0 | 0.1 | |||||||||
| 04:50 | 11.9 | 7.2 | 42.3 | 1017.8 | 5.5 | NNW | 7.8 | NNW | 0.0 | 0.2 | |||||||||
| 04:55 | 11.9 | 7.4 | 43.6 | 1017.8 | 4.7 | N | 6.0 | N | 0.0 | 0.5 | |||||||||
| 05:00 | 11.7 | 7.2 | 42.9 | 1017.8 | 4.7 | N | 6.0 | N | 0.0 | 1.0 | |||||||||
| 05:05 | 11.8 | 6.8 | 43.9 | 1017.8 | 4.8 | NNW | 7.4 | NW | 0.0 | 2.0 | |||||||||
| 05:10 | 11.1 | 6.6 | 49.5 | 1017.9 | 2.4 | NNW | 5.6 | NNW | 0.0 | 3.5 | |||||||||
| 05:15 | 10.5 | 6.5 | 52.1 | 1017.9 | 0.4 | NNW | 1.8 | NNW | 0.0 | 5.4 | |||||||||
| 05:20 | 10.3 | 6.3 | 48.8 | 1018.0 | 0.0 | NNE | 0.0 | NNW | 0.0 | 7.8 | |||||||||
| 05:25 | 10.5 | 5.9 | 48.3 | 1018.0 | 0.2 | WSW | 1.8 | NNW | 0.0 | 10.1 | |||||||||
| 05:30 | 10.3 | 5.5 | 52.7 | 1018.1 | 0.4 | S | 3.2 | S | 0.0 | 12.3 | |||||||||
| 05:35 | 10.2 | 5.2 | 53.3 | 1018.1 | 0.9 | NE | 4.6 | ENE | 0.0 | 14.8 | |||||||||
| 05:40 | 10.2 | 5.3 | 54.1 | 1018.2 | 2.7 | ENE | 4.6 | ENE | 0.0 | 16.7 | |||||||||
| 05:45 | 10.3 | 5.4 | 54.9 | 1018.3 | 0.6 | ENE | 2.1 | ENE | 0.0 | 18.7 | |||||||||
| 05:50 | 10.3 | 5.5 | 54.3 | 1018.3 | 1.2 | SE | 1.8 | E | 0.0 | 20.6 | |||||||||
| 05:55 | 10.4 | 5.5 | 54.4 | 1018.3 | 0.2 | SSE | 1.8 | SSE | 0.0 | 33.8 | |||||||||
| 06:00 | 10.4 | 5.6 | 55.5 | 1018.4 | 0.5 | WNW | 1.8 | NW | 0.0 | 116.2 | |||||||||
| 06:05 | 10.5 | 6.3 | 56.1 | 1018.5 | 1.4 | NNW | 4.2 | NNW | 0.0 | 131.4 | |||||||||
| 06:10 | 10.9 | 7.9 | 56.2 | 1018.5 | 3.2 | N | 4.9 | NNE | 0.0 | 145.9 | |||||||||
| 06:15 | 11.3 | 9.9 | 56.6 | 1018.5 | 1.3 | N | 3.9 | NNW | 0.0 | 159.9 | |||||||||
| 06:20 | 11.7 | 11.7 | 62.4 | 1018.6 | 1.3 | NNE | 2.8 | NNE | 0.0 | 174.0 | |||||||||
| 06:25 | 12.0 | 13.2 | 63.6 | 1018.7 | 0.1 | N | 1.4 | NNW | 0.0 | 188.1 | |||||||||
| 06:30 | 12.5 | 14.9 | 65.5 | 1018.8 | 0.0 | NNE | 0.0 | N | 0.0 | 202.7 | |||||||||
| 06:35 | 13.1 | 16.5 | 64.5 | 1018.8 | 1.0 | ESE | 2.8 | E | 0.0 | 217.2 | |||||||||
| 06:40 | 13.7 | 17.9 | 61.3 | 1018.9 | 3.5 | SE | 7.8 | SE | 0.0 | 230.8 | |||||||||
| 06:45 | 14.0 | 18.8 | 60.0 | 1018.9 | 2.9 | E | 7.8 | SE | 0.0 | 245.7 | |||||||||
| 06:50 | 14.2 | 19.4 | 61.0 | 1019.0 | 2.0 | E | 4.9 | SE | 0.0 | 260.4 | |||||||||
| 06:55 | 14.5 | 20.1 | 61.2 | 1019.0 | 3.0 | SE | 7.1 | SE | 0.0 | 274.4 | |||||||||
| 07:00 | 14.7 | 20.5 | 61.5 | 1019.0 | 3.9 | ESE | 7.8 | SE | 0.0 | 289.1 | |||||||||
| 07:05 | 14.8 | 20.9 | 61.0 | 1019.0 | 5.8 | ESE | 11.3 | SE | 0.0 | 304.1 | |||||||||
| 07:10 | 14.9 | 21.1 | 61.1 | 1019.0 | 5.6 | ESE | 9.2 | SE | 0.0 | 318.5 | |||||||||
| 07:15 | 15.0 | 21.5 | 60.5 | 1019.1 | 6.1 | SE | 8.5 | SE | 0.0 | 333.2 | |||||||||
| 07:20 | 15.1 | 21.9 | 60.6 | 1019.2 | 5.4 | ESE | 9.2 | ESE | 0.0 | 346.5 | |||||||||
| 07:25 | 15.2 | 22.5 | 60.5 | 1019.2 | 5.6 | SSE | 9.2 | SSE | 0.0 | 360.7 | |||||||||
| 07:30 | 15.2 | 23.2 | 59.6 | 1019.3 | 5.8 | SE | 9.2 | SSE | 0.0 | 374.4 | |||||||||
| 07:35 | 15.1 | 23.5 | 59.2 | 1019.4 | 5.4 | SSE | 8.1 | SE | 0.0 | 389.3 | |||||||||
| 07:40 | 15.1 | 23.8 | 60.1 | 1019.4 | 4.9 | SSE | 8.8 | SE | 0.0 | 403.4 | |||||||||
| 07:45 | 15.4 | 24.3 | 59.3 | 1019.4 | 5.2 | SE | 9.9 | SSE | 0.0 | 416.4 | |||||||||
| 07:50 | 15.7 | 24.7 | 60.2 | 1019.5 | 3.8 | SE | 9.2 | SSE | 0.0 | 431.0 | |||||||||
| 07:55 | 15.9 | 25.2 | 61.0 | 1019.6 | 7.0 | SSE | 10.9 | SE | 0.0 | 444.5 | |||||||||
| 08:00 | 15.8 | 25.4 | 61.5 | 1019.7 | 6.5 | SSE | 9.5 | SSE | 0.0 | 457.3 | |||||||||
| 08:05 | 15.8 | 25.6 | 61.9 | 1019.8 | 5.9 | SE | 8.8 | SSE | 0.0 | 471.9 | |||||||||
| 08:10 | 15.8 | 25.8 | 63.2 | 1019.7 | 6.3 | SSE | 10.6 | SE | 0.0 | 485.1 | |||||||||
| 08:15 | 15.7 | 25.9 | 63.1 | 1019.8 | 4.2 | SE | 9.2 | SE | 0.0 | 497.9 | |||||||||
| 08:20 | 16.0 | 26.3 | 62.0 | 1019.8 | 4.6 | S | 8.8 | SE | 0.0 | 511.9 | |||||||||
| 08:25 | 15.9 | 26.6 | 60.0 | 1019.8 | 6.5 | SSE | 9.9 | SE | 0.0 | 524.6 | |||||||||
| 08:30 | 16.0 | 26.8 | 57.0 | 1019.9 | 8.1 | SSE | 13.4 | SSE | 0.0 | 537.2 | |||||||||
| 08:35 | 16.1 | 26.9 | 55.8 | 1020.0 | 6.4 | SSE | 12.4 | SSE | 0.0 | 549.3 | |||||||||
| 08:40 | 16.2 | 27.3 | 55.1 | 1020.0 | 8.6 | SSE | 13.8 | SSE | 0.0 | 561.4 | |||||||||
| 08:45 | 16.2 | 27.4 | 54.6 | 1020.0 | 8.1 | SE | 12.0 | ESE | 0.0 | 569.8 | |||||||||
| 08:50 | 16.3 | 27.2 | 55.6 | 1020.0 | 7.9 | SE | 12.7 | SE | 0.0 | 548.6 | |||||||||
| 08:55 | 16.3 | 27.1 | 56.5 | 1020.0 | 7.6 | SE | 11.3 | SSE | 0.0 | 596.0 | |||||||||
| 09:00 | 16.3 | 27.3 | 55.5 | 1020.0 | 7.0 | SSE | 10.9 | SE | 0.0 | 606.9 | |||||||||
| 09:05 | 16.3 | 27.7 | 57.1 | 1020.0 | 7.6 | SSE | 11.6 | SE | 0.0 | 618.6 | |||||||||
| 09:10 | 16.3 | 28.0 | 55.6 | 1020.0 | 8.0 | SSE | 12.4 | SSE | 0.0 | 629.7 | |||||||||
| 09:15 | 16.2 | 28.0 | 56.2 | 1020.1 | 6.8 | SSE | 13.4 | SSE | 0.0 | 639.5 | |||||||||
| 09:20 | 16.4 | 27.9 | 54.3 | 1020.1 | 6.8 | SSE | 11.6 | SSE | 0.0 | 650.1 | |||||||||
| 09:25 | 16.5 | 28.1 | 52.2 | 1020.1 | 9.1 | SSE | 13.1 | SE | 0.0 | 659.2 | |||||||||
| 09:30 | 16.3 | 28.4 | 54.0 | 1020.1 | 6.8 | S | 12.4 | S | 0.0 | 669.1 | |||||||||
| 09:35 | 16.3 | 28.6 | 53.2 | 1020.2 | 7.6 | S | 12.7 | SSE | 0.0 | 676.4 | |||||||||
| 09:40 | 16.5 | 28.9 | 53.8 | 1020.2 | 5.4 | S | 10.2 | SSE | 0.0 | 686.9 | |||||||||
| 09:45 | 16.7 | 29.2 | 53.4 | 1020.2 | 6.5 | SSE | 11.6 | SE | 0.0 | 695.5 | |||||||||
| 09:50 | 16.9 | 29.7 | 54.9 | 1020.1 | 5.4 | SSE | 8.8 | SSE | 0.0 | 704.4 | |||||||||
| 09:55 | 17.2 | 30.1 | 53.0 | 1020.1 | 7.6 | SSE | 11.3 | SSE | 0.0 | 711.6 | |||||||||
| 10:00 | 17.1 | 30.4 | 46.9 | 1020.2 | 5.8 | SSW | 10.2 | SSW | 0.0 | 720.5 | |||||||||
| 10:05 | 17.1 | 30.5 | 49.3 | 1020.1 | 5.2 | SSE | 9.9 | SSE | 0.0 | 728.4 | |||||||||
| 10:10 | 17.2 | 30.4 | 46.4 | 1020.0 | 7.4 | SSE | 12.7 | SSE | 0.0 | 736.1 | |||||||||
| 10:15 | 17.3 | 30.3 | 42.9 | 1020.0 | 5.9 | SSE | 11.3 | SSE | 0.0 | 742.5 | |||||||||
| 10:20 | 17.4 | 30.5 | 42.2 | 1019.9 | 8.3 | SSE | 13.1 | S | 0.0 | 750.5 | |||||||||
| 10:25 | 17.6 | 30.8 | 44.5 | 1020.0 | 8.3 | S | 13.8 | S | 0.0 | 756.0 | |||||||||
| 10:30 | 17.6 | 30.9 | 44.5 | 1020.0 | 7.1 | SSE | 13.4 | SSE | 0.0 | 762.9 | |||||||||
| 10:35 | 17.7 | 30.8 | 45.6 | 1020.0 | 7.0 | SE | 12.0 | SSE | 0.0 | 768.3 | |||||||||
| 10:40 | 17.6 | 31.0 | 40.5 | 1020.0 | 5.4 | SE | 12.4 | SSE | 0.0 | 775.0 | |||||||||
| 10:45 | 17.8 | 31.3 | 43.0 | 1020.0 | 7.9 | SSW | 13.4 | S | 0.0 | 779.1 | |||||||||
| 10:50 | 17.8 | 31.1 | 40.2 | 1020.0 | 7.3 | SSW | 13.1 | S | 0.0 | 783.3 | |||||||||
| 10:55 | 17.9 | 30.8 | 42.1 | 1019.9 | 6.4 | S | 13.8 | SSE | 0.0 | 787.3 | |||||||||
| 11:00 | 17.9 | 30.9 | 42.2 | 1019.9 | 7.9 | SE | 14.1 | S | 0.0 | 792.9 | |||||||||
| 11:05 | 17.8 | 31.3 | 39.6 | 1019.8 | 7.3 | SE | 14.5 | S | 0.0 | 796.1 | |||||||||
| 11:10 | 17.9 | 31.7 | 41.5 | 1019.8 | 7.4 | S | 12.0 | S | 0.0 | 798.7 | |||||||||
| 11:15 | 18.1 | 32.0 | 40.1 | 1019.7 | 6.8 | SSE | 11.6 | ESE | 0.0 | 802.0 | |||||||||
| 11:20 | 18.3 | 32.2 | 36.5 | 1019.7 | 10.7 | SE | 15.5 | ESE | 0.0 | 806.0 | |||||||||
| 11:25 | 18.2 | 31.9 | 37.4 | 1019.6 | 9.9 | SSE | 14.8 | SSE | 0.0 | 809.0 | |||||||||
| 11:30 | 18.3 | 32.0 | 38.8 | 1019.6 | 9.2 | SSE | 13.4 | S | 0.0 | 810.0 | |||||||||
| 11:35 | 18.0 | 32.1 | 44.2 | 1019.6 | 9.3 | SSE | 16.2 | SE | 0.0 | 809.0 | |||||||||
| 11:40 | 17.9 | 32.1 | 43.1 | 1019.5 | 9.1 | SSE | 15.5 | SSE | 0.0 | 812.0 | |||||||||
| 11:45 | 17.9 | 32.2 | 45.0 | 1019.4 | 7.8 | SSE | 12.0 | SSE | 0.0 | 811.0 | |||||||||
| 11:50 | 18.1 | 32.2 | 42.7 | 1019.4 | 7.5 | S | 13.1 | S | 0.0 | 813.0 | |||||||||
| 11:55 | 18.1 | 32.0 | 42.1 | 1019.4 | 7.8 | SSE | 13.1 | SE | 0.0 | 813.0 | |||||||||
| 12:00 | 18.0 | 32.0 | 40.5 | 1019.4 | 8.7 | SSE | 15.5 | SE | 0.0 | 812.0 | |||||||||
| 12:05 | 18.0 | 32.0 | 36.5 | 1019.4 | 8.5 | SE | 15.2 | SSE | 0.0 | 812.0 | |||||||||
| 12:10 | 18.0 | 32.1 | 38.8 | 1019.3 | 6.9 | S | 14.8 | S | 0.0 | 810.0 | |||||||||
| 12:15 | 18.2 | 32.2 | 40.6 | 1019.3 | 9.7 | SSE | 14.1 | SSE | 0.0 | 808.0 | |||||||||
| 12:20 | 18.1 | 32.3 | 40.7 | 1019.3 | 9.9 | SSE | 16.2 | SE | 0.0 | 807.0 | |||||||||
| 12:25 | 17.9 | 32.1 | 42.8 | 1019.3 | 8.8 | SSE | 13.4 | SSE | 0.0 | 804.0 | |||||||||
| 12:30 | 17.9 | 32.1 | 40.1 | 1019.3 | 9.1 | SSE | 17.3 | SE | 0.0 | 801.0 | |||||||||
| 12:35 | 17.8 | 31.8 | 43.5 | 1019.3 | 7.7 | SSE | 13.4 | SSE | 0.0 | 796.5 | |||||||||
| 12:40 | 17.9 | 31.7 | 43.0 | 1019.3 | 9.7 | SSE | 15.5 | SSE | 0.0 | 793.5 | |||||||||
| 12:45 | 17.9 | 31.7 | 46.5 | 1019.3 | 10.4 | SSE | 16.9 | S | 0.0 | 789.2 | |||||||||
| 12:50 | 17.8 | 31.7 | 48.1 | 1019.3 | 9.7 | SSE | 14.1 | SE | 0.0 | 784.1 | |||||||||
| 12:55 | 17.7 | 31.7 | 49.2 | 1019.2 | 9.3 | SSW | 15.9 | S | 0.0 | 780.8 | |||||||||
| 13:00 | 17.8 | 31.7 | 51.9 | 1019.3 | 9.2 | SSE | 16.6 | SE | 0.0 | 774.1 | |||||||||
| 13:05 | 17.7 | 31.4 | 54.1 | 1019.4 | 9.8 | SSE | 15.5 | SSE | 0.0 | 767.9 | |||||||||
| 13:10 | 17.8 | 31.2 | 55.2 | 1019.4 | 8.6 | SSW | 15.5 | SSW | 0.0 | 762.4 | |||||||||
| 13:15 | 18.0 | 30.8 | 54.8 | 1019.3 | 10.0 | SSW | 15.9 | SSE | 0.0 | 757.2 | |||||||||
| 13:20 | 18.1 | 30.8 | 54.6 | 1019.3 | 8.7 | S | 16.6 | S | 0.0 | 749.9 | |||||||||
| 13:25 | 17.9 | 30.9 | 55.3 | 1019.3 | 9.8 | SSW | 17.3 | SSW | 0.0 | 742.3 | |||||||||
| 13:30 | 17.7 | 30.6 | 56.3 | 1019.3 | 8.4 | SW | 15.9 | SSW | 0.0 | 735.1 | |||||||||
| 13:35 | 17.7 | 30.4 | 58.7 | 1019.2 | 9.5 | SSW | 17.6 | SSE | 0.0 | 726.7 | |||||||||
| 13:40 | 17.6 | 30.4 | 57.1 | 1019.2 | 8.2 | S | 13.8 | S | 0.0 | 720.1 | |||||||||
| 13:45 | 17.6 | 30.2 | 59.4 | 1019.1 | 9.7 | SSW | 16.2 | SW | 0.0 | 709.4 | |||||||||
| 13:50 | 17.9 | 30.0 | 58.7 | 1019.0 | 9.1 | SSW | 18.0 | SSE | 0.0 | 700.8 | |||||||||
| 13:55 | 18.1 | 29.9 | 55.7 | 1019.0 | 7.5 | S | 13.4 | S | 0.0 | 691.3 | |||||||||
| 14:00 | 18.2 | 29.7 | 57.4 | 1019.0 | 9.7 | SSW | 15.2 | SSE | 0.0 | 682.8 | |||||||||
| 14:05 | 18.0 | 29.0 | 57.6 | 1018.9 | 7.5 | S | 14.8 | SSE | 0.0 | 635.7 | |||||||||
| 14:10 | 18.1 | 28.6 | 58.8 | 1018.9 | 9.3 | S | 17.3 | SSE | 0.0 | 660.6 | |||||||||
| 14:15 | 18.1 | 28.2 | 53.2 | 1018.9 | 10.5 | SE | 16.9 | SSE | 0.0 | 650.8 | |||||||||
| 14:20 | 17.8 | 27.7 | 54.1 | 1018.8 | 9.2 | SSE | 13.4 | SE | 0.0 | 640.8 | |||||||||
| 14:25 | 17.6 | 27.1 | 57.6 | 1018.8 | 9.8 | SE | 15.9 | SE | 0.0 | 630.4 | |||||||||
| 14:30 | 17.7 | 26.5 | 59.2 | 1018.7 | 8.2 | S | 18.7 | SSE | 0.0 | 618.9 | |||||||||
| 14:35 | 17.6 | 25.8 | 59.0 | 1018.7 | 7.8 | SSE | 12.7 | SE | 0.0 | 608.2 | |||||||||
| 14:40 | 17.6 | 25.3 | 56.3 | 1018.6 | 8.9 | S | 15.9 | SE | 0.0 | 599.5 | |||||||||
| 14:45 | 17.6 | 24.6 | 57.5 | 1018.7 | 8.6 | S | 14.1 | S | 0.0 | 585.6 | |||||||||
| 14:50 | 17.5 | 23.6 | 58.2 | 1018.7 | 8.5 | S | 16.2 | SSE | 0.0 | 574.9 | |||||||||
| 14:55 | 17.5 | 22.6 | 57.6 | 1018.7 | 8.3 | SSE | 13.8 | S | 0.0 | 560.2 | |||||||||
| 15:00 | 17.3 | 21.5 | 59.1 | 1018.6 | 6.0 | S | 13.1 | SE | 0.0 | 550.1 | |||||||||
| 15:05 | 17.5 | 20.5 | 56.9 | 1018.6 | 7.6 | S | 15.2 | SE | 0.0 | 538.7 | |||||||||
| 15:10 | 17.9 | 19.9 | 53.3 | 1018.6 | 7.2 | SSW | 12.4 | SW | 0.0 | 524.9 | |||||||||
| 15:15 | 17.8 | 19.4 | 53.7 | 1018.6 | 5.8 | S | 9.9 | SSE | 0.0 | 513.4 | |||||||||
| 15:20 | 17.7 | 19.0 | 52.3 | 1018.6 | 5.3 | S | 10.2 | S | 0.0 | 499.8 | |||||||||
| 15:25 | 17.8 | 18.8 | 54.1 | 1018.6 | 5.9 | SSE | 10.9 | S | 0.0 | 486.5 | |||||||||
| 15:30 | 17.9 | 18.6 | 56.6 | 1018.6 | 5.5 | SSE | 11.6 | SE | 0.0 | 472.4 | |||||||||
| 15:35 | 18.0 | 18.6 | 55.8 | 1018.6 | 5.7 | SSW | 11.6 | SW | 0.0 | 459.4 | |||||||||
| 15:40 | 18.1 | 18.6 | 55.9 | 1018.5 | 6.2 | SW | 11.3 | SSW | 0.0 | 446.1 | |||||||||
| 15:45 | 18.0 | 18.5 | 58.4 | 1018.4 | 5.0 | SE | 11.6 | S | 0.0 | 433.2 | |||||||||
| 15:50 | 17.9 | 18.5 | 59.7 | 1018.4 | 7.8 | SSE | 14.8 | SSE | 0.0 | 421.0 | |||||||||
| 15:55 | 17.8 | 18.4 | 59.1 | 1018.3 | 7.8 | S | 11.3 | S | 0.0 | 406.4 | |||||||||
| 16:00 | 17.7 | 18.3 | 61.3 | 1018.4 | 6.3 | S | 10.9 | SSE | 0.0 | 391.7 | |||||||||
| 16:05 | 17.7 | 18.2 | 62.3 | 1018.3 | 7.6 | SSE | 13.1 | S | 0.0 | 377.6 | |||||||||
| 16:10 | 17.6 | 18.2 | 60.9 | 1018.3 | 8.2 | S | 14.8 | SE | 0.0 | 363.4 | |||||||||
| 16:15 | 17.4 | 18.0 | 59.7 | 1018.4 | 8.6 | S | 13.4 | SE | 0.0 | 348.9 | |||||||||
| 16:20 | 17.3 | 17.9 | 59.2 | 1018.3 | 6.1 | S | 10.6 | S | 0.0 | 333.5 | |||||||||
| 16:25 | 17.3 | 17.8 | 58.6 | 1018.3 | 4.1 | SSW | 10.9 | SSE | 0.0 | 318.3 | |||||||||
| 16:30 | 17.5 | 17.7 | 57.6 | 1018.4 | 4.5 | S | 10.2 | S | 0.0 | 301.5 | |||||||||
| 16:35 | 17.5 | 17.7 | 55.2 | 1018.4 | 5.5 | S | 10.9 | SSW | 0.0 | 290.3 | |||||||||
| 16:40 | 17.4 | 17.7 | 53.7 | 1018.4 | 6.2 | S | 10.6 | S | 0.0 | 275.8 | |||||||||
| 16:45 | 17.4 | 17.8 | 53.6 | 1018.5 | 4.2 | SSE | 9.9 | SSW | 0.0 | 260.4 | |||||||||
| 16:50 | 17.3 | 18.0 | 55.7 | 1018.5 | 6.4 | S | 10.6 | SSW | 0.0 | 246.0 | |||||||||
| 16:55 | 17.1 | 18.6 | 59.1 | 1018.6 | 6.4 | S | 9.5 | S | 0.0 | 231.4 | |||||||||
| 17:00 | 16.9 | 19.4 | 60.7 | 1018.6 | 6.0 | SSE | 10.9 | S | 0.0 | 216.4 | |||||||||
| 17:05 | 16.8 | 19.7 | 60.6 | 1018.6 | 5.6 | S | 9.9 | S | 0.0 | 202.5 | |||||||||
| 17:10 | 16.7 | 19.5 | 59.8 | 1018.7 | 4.8 | SSE | 8.5 | SSE | 0.0 | 188.9 | |||||||||
| 17:15 | 16.8 | 19.6 | 58.1 | 1018.7 | 4.7 | S | 9.2 | S | 0.0 | 173.9 | |||||||||
| 17:20 | 16.6 | 19.5 | 57.4 | 1018.8 | 6.1 | SSE | 9.5 | SSE | 0.0 | 158.9 | |||||||||
| 17:25 | 16.6 | 19.2 | 57.9 | 1018.7 | 5.1 | SSE | 8.5 | SSE | 0.0 | 145.4 | |||||||||
| 17:30 | 16.5 | 19.0 | 60.1 | 1018.8 | 5.4 | S | 8.8 | S | 0.0 | 131.8 | |||||||||
| 17:35 | 16.3 | 18.7 | 60.4 | 1018.7 | 4.8 | SSE | 7.8 | SSE | 0.0 | 117.5 | |||||||||
| 17:40 | 16.1 | 18.2 | 60.6 | 1018.8 | 2.5 | SSE | 6.4 | SSE | 0.0 | 64.4 | |||||||||
| 17:45 | 16.0 | 17.4 | 65.0 | 1018.9 | 4.9 | S | 8.1 | S | 0.0 | 26.7 | |||||||||
| 17:50 | 15.8 | 16.6 | 66.1 | 1018.9 | 2.4 | S | 6.0 | S | 0.0 | 23.8 | |||||||||
| 17:55 | 15.7 | 15.8 | 68.5 | 1018.8 | 4.2 | SSE | 9.5 | S | 0.0 | 21.7 | |||||||||
| 18:00 | 15.5 | 15.2 | 70.4 | 1018.9 | 2.6 | SSE | 8.1 | S | 0.0 | 19.6 | |||||||||
| 18:05 | 15.4 | 14.7 | 72.1 | 1018.9 | 4.4 | SSW | 7.4 | SSE | 0.0 | 17.2 | |||||||||
| 18:10 | 15.2 | 14.2 | 72.3 | 1019.0 | 4.4 | SW | 7.4 | SW | 0.0 | 14.9 | |||||||||
| 18:15 | 15.2 | 13.9 | 74.6 | 1019.0 | 4.6 | SW | 7.8 | SW | 0.0 | 12.3 | |||||||||
| 18:20 | 15.0 | 13.7 | 76.4 | 1019.1 | 4.3 | S | 7.1 | SE | 0.0 | 9.3 | |||||||||
| 18:25 | 14.9 | 13.4 | 77.5 | 1019.1 | 4.4 | S | 7.8 | S | 0.0 | 6.9 | |||||||||
| 18:30 | 14.8 | 13.1 | 78.3 | 1019.2 | 2.4 | S | 6.4 | S | 0.0 | 4.5 | |||||||||
| 18:35 | 14.7 | 12.7 | 79.0 | 1019.3 | 2.8 | S | 5.3 | SSW | 0.0 | 2.8 | |||||||||
| Màxima | 18.3 | 32.3 | 79.0 | 1020.2 | 15.9 | NNW | 21.9 | NNW | 0.0 | 813.0 | |||||||||
| Mínima | 10.2 | 5.2 | 36.5 | 1017.7 | |||||||||||||||
| Total | 0.0 | ||||||||||||||||||